アデレード の空港の天気 - METARとTAF

アデレード空港 ( YPAD / ADL ) - オーストラリア 南オーストラリア州アデレード
飛行場実況気象(Metar)
観測時間11/18 04:00 ACDT (11/17 17:30 UTC)
風向・風速東 8m/s
視程10km以上
天気現象
なし
気温18℃
湿度39%
気圧1016hPa
METARYPAD 171730Z 08016KT CAVOK 18/04 Q1016 NOSIG
過去の天気等 Google飛行場航空写真 Wunderground天気予報

過去48時間のMETAR

飛行場予報(TAF)
発表時間: 11/18 03:57 ACDT (11/17 17:27 UTC)
予報対象時間: 18日4時 ACDT ~ 19日10時 ACDT
風向・風速東北東 6m/s
視程10km以上
なし
18日6時 ACDT から
風向・風速北東 6m/s
視程10km以上
なし
18日14時 ACDT から
風向・風速南西 5m/s
視程10km以上
なし
18日19時 ACDT から
風向・風速北東 6m/s
視程10km以上
なし
TAF YPAD 171727Z 1718/1824 07012KT CAVOK
FM172000 04012KT CAVOK
FM180400 23010KT CAVOK
FM180900 05012KT CAVOK